Time;durP1;ratioP1;P1;durP2;ratioP2;P2;SDS_P1;SDS_P2;PMS_P1;PMS_P2;Temp;Humidity;BMP_temperature;BMP_pressure;BME280_temperature;BME280_humidity;BME280_pressure;Samples;Min_cycle;Max_cycle;Signal;HPM_P1;HPM_P2
2023/04/29 00:00:05;;;;;;;1999.90;999.90;;;;;;;10.60;100.00;93508.59;5010407;28;20247;-63
2023/04/29 00:02:31;;;;;;;1999.90;999.90;;;;;;;10.60;100.00;93511.31;5010288;28;20217;-64
2023/04/29 00:04:56;;;;;;;1999.90;999.90;;;;;;;10.61;100.00;93504.63;5009755;28;20214;-64
2023/04/29 00:07:22;;;;;;;1999.90;999.90;;;;;;;10.61;100.00;93499.19;5010048;28;20194;-64
2023/04/29 00:09:47;;;;;;;1999.90;999.90;;;;;;;10.60;100.00;93503.13;5009684;28;20229;-64
2023/04/29 00:12:12;;;;;;;1999.90;999.90;;;;;;;10.60;100.00;93503.13;5009701;28;20199;-64
2023/04/29 00:14:38;;;;;;;1999.90;999.90;;;;;;;10.59;100.00;93501.63;5009577;28;20205;-63
2023/04/29 00:17:03;;;;;;;1999.90;999.90;;;;;;;10.58;100.00;93491.88;5009570;28;20208;-64
2023/04/29 00:19:29;;;;;;;1999.90;999.90;;;;;;;10.60;100.00;93497.66;5010064;28;20197;-64
2023/04/29 00:21:54;;;;;;;1999.90;999.90;;;;;;;10.60;100.00;93492.22;5009518;28;20201;-63
2023/04/29 00:24:19;;;;;;;1999.90;999.90;;;;;;;10.61;100.00;93493.72;5009331;28;20280;-63
2023/04/29 00:26:45;;;;;;;1999.90;999.90;;;;;;;10.60;100.00;93486.75;5009868;28;20212;-64
2023/04/29 00:29:10;;;;;;;1999.90;999.90;;;;;;;10.60;100.00;93486.75;5009985;28;20205;-63
2023/04/29 00:31:36;;;;;;;1999.90;999.90;;;;;;;10.63;100.00;93480.41;5009810;28;20207;-63
2023/04/29 00:34:02;;;;;;;1999.90;999.90;;;;;;;10.64;100.00;93476.44;5009617;28;20268;-64
2023/04/29 00:36:28;;;;;;;1999.90;999.90;;;;;;;10.66;100.00;93474.00;5009657;28;20201;-64
2023/04/29 00:38:53;;;;;;;1999.90;999.90;;;;;;;10.69;100.00;93478.56;5009503;28;20250;-63
2023/04/29 00:41:19;;;;;;;1999.90;999.90;;;;;;;10.69;100.00;93479.34;5009501;28;20205;-63
2023/04/29 00:43:45;;;;;;;1999.90;999.90;;;;;;;10.73;100.00;93477.22;5008944;28;20225;-64
2023/04/29 00:46:10;;;;;;;1999.90;999.90;;;;;;;10.83;100.00;93472.56;5009028;28;20212;-64
2023/04/29 00:48:36;;;;;;;1999.90;999.90;;;;;;;10.92;100.00;93467.13;5008916;28;20272;-64
2023/04/29 00:51:02;;;;;;;1999.90;999.90;;;;;;;10.95;100.00;93458.00;5009409;28;20195;-64
2023/04/29 00:53:28;;;;;;;1999.90;999.90;;;;;;;11.02;100.00;93455.00;5009062;28;20204;-64
2023/04/29 00:55:55;;;;;;;1999.90;999.90;;;;;;;11.08;100.00;93436.81;5008853;28;20196;-64
2023/04/29 00:58:21;;;;;;;1999.90;999.90;;;;;;;11.10;100.00;93439.81;5008821;28;20231;-64
2023/04/29 01:00:47;;;;;;;1999.90;999.90;;;;;;;11.10;100.00;93442.56;5009146;28;20198;-64
2023/04/29 01:03:13;;;;;;;1999.90;999.90;;;;;;;11.07;100.00;93443.47;5008711;28;20249;-64
2023/04/29 01:05:39;;;;;;;1999.90;999.90;;;;;;;11.06;100.00;93441.94;5009033;28;20237;-64
2023/04/29 01:08:25;;;;;;;1999.90;999.90;;;;;;;11.04;100.00;93444.38;5008926;28;20199;-65
2023/04/29 01:11:08;;;;;;;1999.90;999.90;;;;;;;11.03;100.00;93454.53;5008624;28;20280;-64
2023/04/29 01:13:48;;;;;;;1999.90;999.90;;;;;;;11.03;100.00;93437.41;5008598;28;20194;-64
2023/04/29 01:16:26;;;;;;;1999.90;999.90;;;;;;;10.99;100.00;93426.63;5008946;28;20188;-65
2023/04/29 01:18:58;;;;;;;1999.90;999.90;;;;;;;10.97;100.00;93426.31;5008581;28;20275;-64
2023/04/29 01:21:24;;;;;;;1999.90;999.90;;;;;;;10.97;100.00;93422.81;5008258;28;20197;-64
2023/04/29 01:23:55;;;;;;;1999.90;999.90;;;;;;;10.97;100.00;93417.38;5008218;28;20202;-65
2023/04/29 01:26:21;;;;;;;1999.90;999.90;;;;;;;10.98;100.00;93418.88;5008259;28;20245;-64
2023/04/29 01:29:01;;;;;;;1999.90;999.90;;;;;;;10.96;100.00;93418.59;5008410;28;20199;-64
2023/04/29 01:31:26;;;;;;;1999.90;999.90;;;;;;;10.97;100.00;93422.81;5007781;28;20197;-64
2023/04/29 01:34:13;;;;;;;1999.90;999.90;;;;;;;10.96;100.00;93418.59;5008209;28;20213;-64
2023/04/29 01:36:59;;;;;;;1999.90;999.90;;;;;;;10.98;100.00;93424.34;5008310;28;20304;-64
2023/04/29 01:39:31;;;;;;;1999.90;999.90;;;;;;;10.97;100.00;93425.56;5008552;28;20271;-65
2023/04/29 01:42:04;;;;;;;1999.90;999.90;;;;;;;10.97;100.00;93422.81;5008580;28;20273;-63
2023/04/29 01:44:32;;;;;;;1999.90;999.90;;;;;;;10.96;100.00;93415.84;5008474;28;20239;-63
2023/04/29 01:47:00;;;;;;;1999.90;999.90;;;;;;;10.96;100.00;93413.13;5008071;28;20208;-63
2023/04/29 01:49:28;;;;;;;1999.90;999.90;;;;;;;10.94;100.00;93418.25;5008036;28;20308;-64
2023/04/29 01:51:54;;;;;;;1999.90;999.90;;;;;;;10.94;100.00;93418.25;5008448;28;20197;-63
2023/04/29 01:54:21;;;;;;;1999.90;999.90;;;;;;;10.92;100.00;93413.25;5008030;28;20206;-64
2023/04/29 01:56:47;;;;;;;1999.90;999.90;;;;;;;10.94;100.00;93412.81;5007871;28;20185;-64
2023/04/29 01:59:12;;;;;;;1999.90;999.90;;;;;;;10.98;100.00;93407.94;5008286;28;20247;-64
2023/04/29 02:01:38;;;;;;;1999.90;999.90;;;;;;;10.98;100.00;93402.50;5007979;28;20198;-64
2023/04/29 02:04:03;;;;;;;1999.90;999.90;;;;;;;11.01;100.00;93401.59;5007810;28;20201;-64
2023/04/29 02:06:30;;;;;;;1999.90;999.90;;;;;;;11.00;100.00;93397.34;5007630;28;20198;-65
2023/04/29 02:08:56;;;;;;;1999.90;999.90;;;;;;;11.01;100.00;93398.84;5008053;28;20210;-64
2023/04/29 02:11:22;;;;;;;1999.90;999.90;;;;;;;10.98;100.00;93402.50;5008086;28;20198;-65
2023/04/29 02:13:48;;;;;;;1999.90;999.90;;;;;;;11.00;100.00;93400.06;5007490;28;20232;-65
2023/04/29 02:16:14;;;;;;;1999.90;999.90;;;;;;;11.03;100.00;93399.19;5008109;28;20271;-64
2023/04/29 02:18:39;;;;;;;1999.90;999.90;;;;;;;11.06;100.00;93404.47;5007544;28;20208;-65
2023/04/29 02:21:05;;;;;;;1999.90;999.90;;;;;;;11.10;100.00;93401.56;5008080;28;20268;-65
2023/04/29 02:23:31;;;;;;;1999.90;999.90;;;;;;;11.15;100.00;93395.53;5008008;28;20200;-65
2023/04/29 02:25:56;;;;;;;1999.90;999.90;;;;;;;11.20;100.00;93397.66;5007216;28;20238;-65
2023/04/29 02:28:24;;;;;;;1999.90;999.90;;;;;;;11.22;100.00;93395.22;5007519;28;20181;-65
2023/04/29 02:30:50;;;;;;;1999.90;999.90;;;;;;;11.23;100.00;93383.06;5007978;28;20201;-65
2023/04/29 02:33:17;;;;;;;1999.90;999.90;;;;;;;11.20;100.00;93392.19;5007782;28;20208;-64
2023/04/29 02:35:42;;;;;;;1999.90;999.90;;;;;;;11.18;100.00;93389.91;5007529;28;20200;-65
2023/04/29 02:38:08;;;;;;;1999.90;999.90;;;;;;;11.17;100.00;93382.94;5007370;28;20197;-65
2023/04/29 02:40:33;;;;;;;1999.90;999.90;;;;;;;11.16;100.00;93381.41;5007452;28;20224;-65
2023/04/29 02:43:00;;;;;;;1999.90;999.90;;;;;;;11.17;100.00;93387.63;5009605;28;20193;-65
2023/04/29 02:45:25;;;;;;;1999.90;999.90;;;;;;;11.17;100.00;93382.16;5011340;28;20214;-65
2023/04/29 02:47:51;;;;;;;1999.90;999.90;;;;;;;11.13;100.00;93387.00;5010992;28;20244;-64
2023/04/29 02:50:16;;;;;;;1999.90;999.90;;;;;;;11.15;100.00;93395.53;5011286;28;20240;-64
2023/04/29 02:52:41;;;;;;;1999.90;999.90;;;;;;;11.13;100.00;93395.22;5010878;28;20191;-64
2023/04/29 02:55:08;;;;;;;1999.90;999.90;;;;;;;11.13;100.00;93397.94;5011322;28;20268;-63
2023/04/29 02:57:33;;;;;;;1999.90;999.90;;;;;;;11.13;100.00;93401.44;5010981;28;20209;-64
2023/04/29 02:59:59;;;;;;;1999.90;999.90;;;;;;;11.15;100.00;93396.28;5011493;28;20205;-63
2023/04/29 03:02:25;;;;;;;1999.90;999.90;;;;;;;11.16;100.00;93391.56;5011609;28;20249;-63
2023/04/29 03:04:50;;;;;;;1999.90;999.90;;;;;;;11.15;100.00;93395.53;5010964;28;20217;-63
2023/04/29 03:07:16;;;;;;;1999.90;999.90;;;;;;;11.14;100.00;93400.22;5011167;28;20277;-63
2023/04/29 03:09:41;;;;;;;1999.90;999.90;;;;;;;11.13;100.00;93404.19;5010555;28;20201;-63
2023/04/29 03:12:07;;;;;;;1999.90;999.90;;;;;;;11.16;100.00;93405.22;5011047;28;20265;-63
2023/04/29 03:14:32;;;;;;;1999.90;999.90;;;;;;;11.16;100.00;93397.03;5011090;28;20233;-63
2023/04/29 03:16:57;;;;;;;1999.90;999.90;;;;;;;11.16;100.00;93408.72;5010482;28;20194;-64
2023/04/29 03:19:23;;;;;;;1999.90;999.90;;;;;;;11.19;100.00;93398.88;5010715;28;20264;-63
2023/04/29 03:21:49;;;;;;;1999.90;999.90;;;;;;;11.23;100.00;93402.19;5011159;28;20229;-64
2023/04/29 03:24:14;;;;;;;1999.90;999.90;;;;;;;11.27;100.00;93391.88;5011125;28;20206;-63
2023/04/29 03:26:41;;;;;;;1999.90;999.90;;;;;;;11.29;100.00;93384.00;5010730;28;20194;-65
2023/04/29 03:29:07;;;;;;;1999.90;999.90;;;;;;;11.32;100.00;93389.28;5011340;28;20189;-64
2023/04/29 03:31:33;;;;;;;1999.90;999.90;;;;;;;11.34;100.00;93386.09;5010875;28;20212;-64
2023/04/29 03:33:58;;;;;;;1999.90;999.90;;;;;;;11.32;100.00;93388.53;5011153;28;20204;-64
2023/04/29 03:36:24;;;;;;;1999.90;999.90;;;;;;;11.31;100.00;93355.00;5010322;28;20210;-64
2023/04/29 03:38:49;;;;;;;1999.90;999.90;;;;;;;11.33;100.00;93349.06;5010302;28;20205;-64
2023/04/29 03:41:14;;;;;;;1999.90;999.90;;;;;;;11.31;100.00;93326.91;5010204;28;20219;-64
2023/04/29 03:43:42;;;;;;;1999.90;999.90;;;;;;;11.34;100.00;93331.44;5010423;28;20245;-65
2023/04/29 03:46:08;;;;;;;1999.90;999.90;;;;;;;11.35;100.00;93320.06;5009934;28;20290;-64
2023/04/29 03:48:34;;;;;;;1999.90;999.90;;;;;;;11.37;100.00;93325.06;5010101;28;20205;-63
2023/04/29 03:50:59;;;;;;;1999.90;999.90;;;;;;;11.44;100.00;93319.28;5010228;28;20266;-63
2023/04/29 03:53:25;;;;;;;1999.90;999.90;;;;;;;11.44;100.00;93325.50;5009995;28;20222;-63
2023/04/29 03:55:50;;;;;;;1999.90;999.90;;;;;;;11.45;100.00;93326.28;5010027;28;20210;-63
2023/04/29 03:58:16;;;;;;;1999.90;999.90;;;;;;;11.42;100.00;93321.72;5010011;28;20208;-64
2023/04/29 04:00:41;;;;;;;1999.90;999.90;;;;;;;11.42;100.00;93324.44;5009543;28;20269;-64
2023/04/29 04:03:07;;;;;;;1999.90;999.90;;;;;;;11.41;100.00;93320.22;5010142;28;20273;-63
2023/04/29 04:05:33;;;;;;;1999.90;999.90;;;;;;;11.38;100.00;93326.59;5010111;28;20218;-63
2023/04/29 04:07:59;;;;;;;1999.90;999.90;;;;;;;11.39;100.00;93333.56;5009820;28;20203;-64
2023/04/29 04:10:25;;;;;;;1999.90;999.90;;;;;;;11.41;100.00;93331.91;5009822;28;20202;-63
2023/04/29 04:12:50;;;;;;;1999.90;999.90;;;;;;;11.47;100.00;93334.78;5010165;28;20280;-64
2023/04/29 04:15:16;;;;;;;1999.90;999.90;;;;;;;11.54;100.00;93323.53;5009628;28;20209;-63
2023/04/29 04:17:41;;;;;;;1999.90;999.90;;;;;;;11.63;100.00;93320.78;5009660;28;20205;-64
2023/04/29 04:20:07;;;;;;;1999.90;999.90;;;;;;;11.70;100.00;93315.00;5009652;28;20229;-63
2023/04/29 04:22:32;;;;;;;1999.90;999.90;;;;;;;11.77;100.00;93314.66;5009567;28;20265;-65
2023/04/29 04:24:58;;;;;;;1999.90;999.90;;;;;;;11.83;100.00;93307.34;5009471;28;20221;-65
2023/04/29 04:27:23;;;;;;;1999.90;999.90;;;;;;;11.85;100.00;93313.13;5009612;28;20202;-65
2023/04/29 04:29:53;;;;;;;1999.90;999.90;;;;;;;11.90;100.00;93312.47;5009330;28;20218;-65
2023/04/29 04:32:19;;;;;;;1999.90;999.90;;;;;;;11.93;100.00;93312.31;5009725;28;20561;-64
2023/04/29 04:34:44;;;;;;;1999.90;999.90;;;;;;;12.05;100.00;93316.06;5009202;28;20195;-65
2023/04/29 04:37:10;;;;;;;1999.90;999.90;;;;;;;12.13;100.00;93309.03;5009403;28;20201;-65
2023/04/29 04:39:37;;;;;;;1999.90;999.90;;;;;;;12.19;100.00;93301.69;5009590;28;20199;-64
2023/04/29 04:42:02;;;;;;;1999.90;999.90;;;;;;;12.21;100.00;93302.75;5009139;28;20199;-64
2023/04/29 04:44:29;;;;;;;1999.90;999.90;;;;;;;12.24;100.00;93309.28;5009048;28;20214;-64
2023/04/29 04:46:54;;;;;;;1999.90;999.90;;;;;;;12.28;100.00;93309.88;5009211;28;20202;-65
2023/04/29 04:49:19;;;;;;;1999.90;999.90;;;;;;;12.33;100.00;93306.50;5009161;28;20191;-65
2023/04/29 04:51:45;;;;;;;1999.90;999.90;;;;;;;12.34;100.00;93316.22;5009126;28;20198;-64
2023/04/29 04:54:11;;;;;;;1999.90;999.90;;;;;;;12.38;100.00;93317.56;5009191;28;20202;-64
2023/04/29 04:56:36;;;;;;;1999.90;999.90;;;;;;;12.43;100.00;93310.69;5008936;28;20199;-65
2023/04/29 04:59:02;;;;;;;1999.90;999.90;;;;;;;12.47;100.00;93311.28;5009441;28;20219;-65
2023/04/29 05:01:28;;;;;;;1999.90;999.90;;;;;;;12.53;100.00;93303.94;5009282;28;20218;-64
2023/04/29 05:03:53;;;;;;;1999.90;999.90;;;;;;;12.58;100.00;93311.50;5008771;28;20237;-64
2023/04/29 05:06:18;;;;;;;1999.90;999.90;;;;;;;12.59;100.00;93310.28;5008242;28;20214;-64
2023/04/29 05:08:44;;;;;;;1999.90;999.90;;;;;;;12.66;100.00;93307.19;5008627;28;20206;-64
2023/04/29 05:11:19;;;;;;;1999.90;999.90;;;;;;;12.68;100.00;93305.50;5008899;28;20205;-65
2023/04/29 05:13:45;;;;;;;1999.90;999.90;;;;;;;12.75;100.00;93299.66;5008419;28;20195;-65
2023/04/29 05:16:11;;;;;;;1999.90;999.90;;;;;;;12.79;100.00;93294.03;5008520;28;20206;-65
2023/04/29 05:18:36;;;;;;;1999.90;999.90;;;;;;;12.87;100.00;93301.41;5008519;28;20187;-64
2023/04/29 05:21:02;;;;;;;1999.90;999.90;;;;;;;13.12;100.00;93300.16;5008367;28;20199;-65
2023/04/29 05:23:27;;;;;;;1999.90;999.90;;;;;;;13.69;100.00;93273.97;5008583;28;20191;-64
2023/04/29 05:25:53;;;;;;;1999.90;999.90;;;;;;;13.98;100.00;93262.22;5008482;28;20246;-64
2023/04/29 05:28:18;;;;;;;1999.90;999.90;;;;;;;13.91;100.00;93279.81;5008712;28;20190;-62
2023/04/29 05:30:44;;;;;;;1999.90;999.90;;;;;;;14.24;100.00;93260.38;5008224;28;20266;-63
2023/04/29 05:33:10;;;;;;;1999.90;999.90;;;;;;;14.87;100.00;93254.69;5008560;28;20202;-62
2023/04/29 05:35:36;;;;;;;1999.90;999.90;;;;;;;15.51;100.00;93240.59;5008713;28;20270;-62
2023/04/29 05:38:01;;;;;;;1999.90;999.90;;;;;;;16.12;100.00;93237.09;5008038;28;20262;-64
2023/04/29 05:40:26;;;;;;;1999.90;999.90;;;;;;;16.51;100.00;93255.84;5008096;28;20261;-64
2023/04/29 05:42:53;;;;;;;1999.90;999.90;;;;;;;16.51;100.00;93338.53;5007925;28;20199;-64
2023/04/29 05:45:18;;;;;;;1999.90;999.90;;;;;;;16.57;100.00;93447.56;5007815;28;20211;-62
2023/04/29 05:47:43;;;;;;;1999.90;999.90;;;;;;;16.55;100.00;93615.41;5008083;28;20194;-63
2023/04/29 05:50:10;;;;;;;1999.90;999.90;;;;;;;17.38;100.00;93561.00;5007931;28;20266;-68
2023/04/29 05:52:35;;;;;;;1999.90;999.90;;;;;;;18.04;100.00;93614.66;5008404;28;20260;-65
2023/04/29 05:55:01;;;;;;;1999.90;999.90;;;;;;;18.51;100.00;93784.56;5008019;28;20198;-65
2023/04/29 05:57:26;;;;;;;1999.90;999.90;;;;;;;18.70;100.00;94222.72;5008037;28;20202;-67
2023/04/29 05:59:54;;;;;;;1999.90;999.90;;;;;;;19.12;100.00;94452.69;5007977;28;20194;-65
2023/04/29 06:02:19;;;;;;;1999.90;999.90;;;;;;;19.27;100.00;94661.16;5007712;28;20199;-64
2023/04/29 06:04:46;;;;;;;1999.90;999.90;;;;;;;19.36;100.00;94886.16;5008101;28;20218;-62
2023/04/29 06:07:12;;;;;;;1999.90;999.90;;;;;;;19.50;100.00;94920.69;5008228;28;20206;-66
2023/04/29 06:09:37;;;;;;;1999.90;999.90;;;;;;;20.13;100.00;94978.41;5007479;28;20195;-67
2023/04/29 06:12:03;;;;;;;1999.90;999.90;;;;;;;20.13;100.00;94978.41;5007843;28;20199;-67
2023/04/29 06:14:29;;;;;;;1999.90;999.90;;;;;;;20.13;100.00;94978.41;5007647;28;20199;-66
2023/04/29 06:16:54;;;;;;;1999.90;999.90;;;;;;;21.87;100.00;95067.28;5007467;28;20257;-67
2023/04/29 06:19:20;;;;;;;1999.90;999.90;;;;;;;21.38;100.00;95075.56;5008080;28;20191;-67
2023/04/29 06:21:45;;;;;;;1999.90;999.90;;;;;;;21.17;100.00;95090.66;5008092;28;20194;-67
2023/04/29 06:24:11;;;;;;;1999.90;999.90;;;;;;;21.45;100.00;95083.53;5007715;28;20195;-68
2023/04/29 06:26:36;;;;;;;1999.90;999.90;;;;;;;21.09;100.00;95092.25;5008055;28;20260;-68
2023/04/29 06:29:01;;;;;;;1999.90;999.90;;;;;;;20.98;100.00;95094.84;5007432;28;20263;-68
2023/04/29 06:31:27;;;;;;;1999.90;999.90;;;;;;;21.06;100.00;95096.00;5007593;28;20186;-68
2023/04/29 06:33:53;;;;;;;1999.90;999.90;;;;;;;21.08;100.00;95101.06;5007996;28;20226;-68
2023/04/29 06:36:19;;;;;;;1999.90;999.90;;;;;;;20.72;100.00;95113.25;5007713;28;20194;-68
2023/04/29 06:38:44;;;;;;;1999.90;999.90;;;;;;;20.06;100.00;95106.31;5007618;28;20199;-68
2023/04/29 06:41:09;;;;;;;1999.90;999.90;;;;;;;19.37;100.00;95105.72;5007822;28;20191;-68
2023/04/29 06:43:35;;;;;;;1999.90;999.90;;;;;;;18.59;100.00;95096.63;5007506;28;20226;-68
2023/04/29 06:46:00;;;;;;;1999.90;999.90;;;;;;;18.19;100.00;95084.91;5007254;28;20282;-67
2023/04/29 06:48:26;;;;;;;1999.90;999.90;;;;;;;17.92;100.00;95069.03;5007566;28;20230;-66
2023/04/29 06:50:57;;;;;;;1999.90;999.90;;;;;;;17.64;100.00;95052.88;5007222;28;20201;-67
2023/04/29 06:53:23;;;;;;;1999.90;999.90;;;;;;;17.53;100.00;95030.47;5007388;28;20206;-68
2023/04/29 06:55:48;;;;;;;1999.90;999.90;;;;;;;17.57;100.00;95011.75;5007456;28;20192;-68
2023/04/29 06:58:15;;;;;;;1999.90;999.90;;;;;;;17.57;100.00;95006.22;5007470;28;20202;-69
2023/04/29 07:00:44;;;;;;;1999.90;999.90;;;;;;;17.53;100.00;94997.31;5007670;28;20302;-67
2023/04/29 07:03:10;;;;;;;1999.90;999.90;;;;;;;17.49;100.00;95004.97;5007656;28;20261;-70
2023/04/29 07:05:38;;;;;;;1999.90;999.90;;;;;;;17.41;100.00;95004.50;5007078;28;20215;-70
2023/04/29 07:08:04;;;;;;;1999.90;999.90;;;;;;;17.61;100.00;95001.31;5007586;28;20245;-70
2023/04/29 07:10:29;;;;;;;1999.90;999.90;;;;;;;18.42;100.00;95004.13;5007271;28;20199;-66
2023/04/29 07:12:55;;;;;;;1999.90;999.90;;;;;;;18.76;100.00;95028.66;5007579;28;20206;-67
2023/04/29 07:15:20;;;;;;;1999.90;999.90;;;;;;;20.87;100.00;95064.06;5007241;28;20199;-67
2023/04/29 07:17:46;;;;;;;1999.90;999.90;;;;;;;21.29;100.00;95095.16;5007137;28;20199;-69
2023/04/29 07:20:12;;;;;;;1999.90;999.90;;;;;;;22.80;100.00;95102.38;5007217;28;20207;-69
2023/04/29 07:22:37;;;;;;;1999.90;999.90;;;;;;;23.11;100.00;95103.22;5006926;28;20210;-66
2023/04/29 07:25:03;;;;;;;1999.90;999.90;;;;;;;22.69;100.00;95116.19;5006967;28;20223;-65
2023/04/29 07:27:28;;;;;;;1999.90;999.90;;;;;;;23.25;100.00;95107.94;5006782;28;20214;-66
2023/04/29 07:29:54;;;;;;;1999.90;999.90;;;;;;;24.79;100.00;95122.22;5009986;28;20241;-66
2023/04/29 07:32:19;;;;;;;1999.90;999.90;;;;;;;25.24;100.00;95112.72;5010234;28;20207;-65
2023/04/29 07:34:45;;;;;;;1999.90;999.90;;;;;;;25.88;100.00;95115.31;5010695;28;20196;-65
2023/04/29 07:37:10;;;;;;;1999.90;999.90;;;;;;;24.86;100.00;95124.53;5010426;28;20198;-70
2023/04/29 07:39:36;;;;;;;1999.90;999.90;;;;;;;23.85;100.00;95124.44;5010530;28;20205;-70
2023/04/29 07:42:01;;;;;;;1999.90;999.90;;;;;;;23.10;100.00;95131.56;5010750;28;20270;-70
2023/04/29 07:44:27;;;;;;;1999.90;999.90;;;;;;;23.28;100.00;95125.72;5010003;28;20244;-66
2023/04/29 07:46:53;;;;;;;1999.90;999.90;;;;;;;22.41;100.00;95138.81;5010279;28;20187;-67
2023/04/29 07:49:18;;;;;;;1999.90;999.90;;;;;;;23.95;100.00;95133.41;5010174;28;20191;-67
2023/04/29 07:51:43;;;;;;;1999.90;999.90;;;;;;;24.33;100.00;95127.31;5010278;28;20194;-66
2023/04/29 07:54:09;;;;;;;1999.90;999.90;;;;;;;24.33;100.00;95128.06;5010665;28;20195;-65
2023/04/29 07:56:34;;;;;;;1999.90;999.90;;;;;;;24.11;100.00;95127.94;5010178;28;20265;-69
2023/04/29 07:59:00;;;;;;;1999.90;999.90;;;;;;;24.67;100.00;95134.63;5010048;28;20202;-66
2023/04/29 08:01:27;;;;;;;1999.90;999.90;;;;;;;24.52;100.00;95123.63;5010254;28;20183;-69
2023/04/29 08:03:52;;;;;;;1999.90;999.90;;;;;;;24.00;100.00;95146.66;5010155;28;20218;-64
2023/04/29 08:06:20;;;;;;;1999.90;999.90;;;;;;;23.21;100.00;95143.66;5009976;28;20207;-63
2023/04/29 08:08:46;;;;;;;1999.90;999.90;;;;;;;23.73;100.00;95136.00;5009968;28;20203;-66
2023/04/29 08:11:19;;;;;;;1999.90;999.90;;;;;;;23.45;100.00;95135.00;5009710;28;20191;-65
2023/04/29 08:13:44;;;;;;;1999.90;999.90;;;;;;;22.96;100.00;95143.56;5009767;28;20237;-68
2023/04/29 08:16:10;;;;;;;1999.90;999.90;;;;;;;23.44;100.00;95139.03;5009735;28;20270;-69
2023/04/29 08:18:35;;;;;;;1999.90;999.90;;;;;;;25.16;100.00;95134.03;5009568;28;20201;-66
2023/04/29 08:21:02;;;;;;;1999.90;999.90;;;;;;;25.21;100.00;95124.91;5009507;28;20237;-66
2023/04/29 08:23:28;;;;;;;1999.90;999.90;;;;;;;23.80;100.00;95129.97;5009602;28;20265;-67
2023/04/29 08:25:54;;;;;;;1999.90;999.90;;;;;;;22.97;100.00;95133.94;5009459;28;20218;-68
2023/04/29 08:28:20;;;;;;;1999.90;999.90;;;;;;;22.07;100.00;95147.97;5009300;28;20207;-70
2023/04/29 08:30:46;;;;;;;1999.90;999.90;;;;;;;21.78;100.00;95144.50;5009996;28;20180;-71
2023/04/29 08:33:11;;;;;;;1999.90;999.90;;;;;;;21.32;100.00;95146.97;5009726;28;20195;-72
2023/04/29 08:35:37;;;;;;;1999.90;999.90;;;;;;;20.69;100.00;95153.06;5010007;28;20266;-71
2023/04/29 08:38:06;;;;;;;1999.90;999.90;;;;;;;20.49;100.00;95160.47;5008861;28;20195;-71
2023/04/29 08:40:40;;;;;;;1999.90;999.90;;;;;;;20.09;100.00;95163.59;5008436;28;20262;-70
2023/04/29 08:43:08;;;;;;;1999.90;999.90;;;;;;;19.55;100.00;95161.06;5009351;28;20222;-71
2023/04/29 08:45:34;;;;;;;1999.90;999.90;;;;;;;19.22;100.00;95162.97;5008679;28;20229;-70
2023/04/29 08:48:01;;;;;;;1999.90;999.90;;;;;;;19.01;100.00;95166.66;5009222;28;20215;-70
2023/04/29 08:50:27;;;;;;;1999.90;999.90;;;;;;;20.07;100.00;95157.75;5008888;28;20241;-67
2023/04/29 08:52:53;;;;;;;1999.90;999.90;;;;;;;22.12;100.00;95140.97;5009039;28;20191;-69
2023/04/29 08:55:19;;;;;;;1999.90;999.90;;;;;;;23.76;100.00;95133.00;5008740;28;20195;-69
2023/04/29 08:57:49;;;;;;;1999.90;999.90;;;;;;;24.34;100.00;95131.63;5008967;28;20182;-70
2023/04/29 09:00:15;;;;;;;1999.90;999.90;;;;;;;25.51;100.00;95120.41;5008987;28;20195;-69
2023/04/29 09:02:48;;;;;;;1999.90;999.90;;;;;;;25.31;100.00;95123.41;5008995;28;20206;-68
2023/04/29 09:05:13;;;;;;;1999.90;999.90;;;;;;;26.01;100.00;95121.22;5007915;28;20510;-65
2023/04/29 09:07:40;;;;;;;1999.90;999.90;;;;;;;26.92;100.00;95105.94;5008498;28;20194;-64
2023/04/29 09:10:07;;;;;;;1999.90;999.90;;;;;;;26.54;100.00;95120.84;5008739;28;20202;-64
2023/04/29 09:12:32;;;;;;;1999.90;999.90;;;;;;;25.96;100.00;95124.00;5008461;28;20191;-68
2023/04/29 09:14:58;;;;;;;1999.90;999.90;;;;;;;24.88;100.00;95119.22;5008643;28;20233;-70
2023/04/29 09:17:53;;;;;;;1999.90;999.90;;;;;;;24.18;100.00;95107.19;5008376;28;20202;-74
2023/04/29 09:20:21;;;;;;;1999.90;999.90;;;;;;;22.87;100.00;95110.31;4995819;28;20219;-67
2023/04/29 09:22:48;;;;;;;1999.90;999.90;;;;;;;23.29;100.00;95122.44;5008549;28;20219;-66
2023/04/29 09:25:14;;;;;;;1999.90;999.90;;;;;;;24.40;100.00;95115.69;5008172;28;20211;-67
2023/04/29 09:27:40;;;;;;;1999.90;999.90;;;;;;;23.81;100.00;95106.38;5007907;28;20274;-80
2023/04/29 09:30:06;;;;;;;1999.90;999.90;;;;;;;23.35;100.00;95117.69;5008076;28;20195;-66
2023/04/29 09:32:32;;;;;;;1999.90;999.90;;;;;;;23.22;100.00;95110.94;5008081;28;20270;-69
2023/04/29 09:34:57;;;;;;;1999.90;999.90;;;;;;;23.75;100.00;95111.16;5008095;28;20222;-70
2023/04/29 09:37:26;;;;;;;1999.90;999.90;;;;;;;23.03;100.00;95116.06;5008181;28;20188;-66
2023/04/29 09:39:53;;;;;;;1999.90;999.90;;;;;;;22.69;100.00;95110.59;5008017;28;20191;-76
2023/04/29 09:42:20;;;;;;;1999.90;999.90;;;;;;;22.03;100.00;95110.47;5007959;28;20191;-83
2023/04/29 09:44:45;;;;;;;1999.90;999.90;;;;;;;21.52;100.00;95115.72;5007740;28;20210;-79
2023/04/29 09:47:12;;;;;;;1999.90;999.90;;;;;;;21.30;100.00;95118.91;5008537;28;20190;-74
2023/04/29 09:49:40;;;;;;;1999.90;999.90;;;;;;;21.05;100.00;95125.00;5008449;28;20273;-68
2023/04/29 09:52:15;;;;;;;1999.90;999.90;;;;;;;21.00;100.00;95128.47;5007858;28;20201;-72
2023/04/29 09:54:41;;;;;;;1999.90;999.90;;;;;;;20.94;100.00;95133.13;5007599;28;20202;-73
2023/04/29 09:57:08;;;;;;;1999.90;999.90;;;;;;;20.79;100.00;95128.78;5008119;28;20245;-70
2023/04/29 09:59:36;;;;;;;1999.90;999.90;;;;;;;21.05;100.00;95129.81;5007721;28;20195;-73
2023/04/29 10:02:09;;;;;;;1999.90;999.90;;;;;;;22.70;100.00;95114.91;5007612;28;20195;-74
2023/04/29 10:04:38;;;;;;;1999.90;999.90;;;;;;;23.77;100.00;95111.44;5007979;28;20222;-75
2023/04/29 10:07:03;;;;;;;1999.90;999.90;;;;;;;24.86;100.00;95108.53;5007508;28;20195;-73
2023/04/29 10:09:30;;;;;;;1999.90;999.90;;;;;;;25.20;100.00;95112.94;5008057;28;20206;-73
2023/04/29 10:11:55;;;;;;;1999.90;999.90;;;;;;;25.45;100.00;95105.63;5007702;28;20206;-73
2023/04/29 10:14:23;;;;;;;1999.90;999.90;;;;;;;26.19;100.00;95101.06;5007534;28;20198;-73
2023/04/29 10:17:26;;;;;;;1999.90;999.90;;;;;;;24.57;100.00;95105.34;5007756;28;20205;-73
2023/04/29 10:20:05;;;;;;;1999.90;999.90;;;;;;;24.13;100.00;95102.31;4992467;28;20278;-73
2023/04/29 10:22:44;;;;;;;1999.90;999.90;;;;;;;23.50;100.00;95103.59;5007445;28;20271;-73
2023/04/29 10:25:10;;;;;;;1999.90;999.90;;;;;;;23.79;100.00;95106.13;5007589;28;20218;-74
2023/04/29 10:27:36;;;;;;;1999.90;999.90;;;;;;;23.80;100.00;95113.22;5007863;28;20195;-74
2023/04/29 10:30:03;;;;;;;1999.90;999.90;;;;;;;23.48;100.00;95108.91;5007755;28;20179;-73
2023/04/29 10:32:30;;;;;;;1999.90;999.90;;;;;;;22.52;100.00;95104.84;5007817;28;20190;-73
2023/04/29 10:34:56;;;;;;;1999.90;999.90;;;;;;;21.88;100.00;95115.31;5007447;28;20187;-75
2023/04/29 10:37:23;;;;;;;1999.90;999.90;;;;;;;21.90;100.00;95124.72;5007744;28;20195;-74
2023/04/29 10:40:14;;;;;;;1999.90;999.90;;;;;;;21.25;100.00;95125.13;5007239;28;20202;-74
2023/04/29 10:42:48;;;;;;;1999.90;999.90;;;;;;;21.29;100.00;95117.38;5007170;28;20201;-76
2023/04/29 10:45:27;;;;;;;1999.90;999.90;;;;;;;20.71;100.00;95125.59;5007659;28;20226;-79